sensor_id;sensor_type;location;lat;lon;timestamp;pressure;altitude;pressure_sealevel;temperature;humidity
32131;BME280;18639;50.716;7.086;2024-01-15T00:05:32;99175.28;;;2.63;100.00
32131;BME280;18639;50.716;7.086;2024-01-15T00:07:57;99181.94;;;2.66;100.00
32131;BME280;18639;50.716;7.086;2024-01-15T00:10:23;99177.59;;;2.68;100.00
32131;BME280;18639;50.716;7.086;2024-01-15T00:12:48;99183.38;;;2.71;100.00
32131;BME280;18639;50.716;7.086;2024-01-15T00:15:14;99173.25;;;2.70;100.00
32131;BME280;18639;50.716;7.086;2024-01-15T00:17:40;99168.47;;;2.79;100.00
32131;BME280;18639;50.716;7.086;2024-01-15T00:20:05;99169.09;;;2.67;100.00
32131;BME280;18639;50.716;7.086;2024-01-15T00:22:31;99161.38;;;2.69;100.00
32131;BME280;18639;50.716;7.086;2024-01-15T00:24:57;99150.53;;;2.65;100.00
32131;BME280;18639;50.716;7.086;2024-01-15T00:27:22;99151.41;;;2.64;100.00
32131;BME280;18639;50.716;7.086;2024-01-15T00:29:48;99159.72;;;2.68;100.00
32131;BME280;18639;50.716;7.086;2024-01-15T00:32:15;99135.19;;;2.49;100.00
32131;BME280;18639;50.716;7.086;2024-01-15T00:34:40;99130.41;;;2.43;100.00
32131;BME280;18639;50.716;7.086;2024-01-15T00:37:06;99132.75;;;2.31;100.00
32131;BME280;18639;50.716;7.086;2024-01-15T00:39:32;99128.88;;;2.24;100.00
32131;BME280;18639;50.716;7.086;2024-01-15T00:41:57;99133.38;;;2.19;100.00
32131;BME280;18639;50.716;7.086;2024-01-15T00:44:22;99147.13;;;2.32;100.00
32131;BME280;18639;50.716;7.086;2024-01-15T00:46:47;99147.38;;;2.27;100.00
32131;BME280;18639;50.716;7.086;2024-01-15T00:49:13;99145.34;;;2.17;100.00
32131;BME280;18639;50.716;7.086;2024-01-15T00:51:39;99112.47;;;1.95;100.00
32131;BME280;18639;50.716;7.086;2024-01-15T00:54:05;99146.78;;;2.05;100.00
32131;BME280;18639;50.716;7.086;2024-01-15T00:56:30;99137.72;;;1.99;100.00
32131;BME280;18639;50.716;7.086;2024-01-15T00:58:55;99119.75;;;1.85;100.00
32131;BME280;18639;50.716;7.086;2024-01-15T01:01:20;99139.72;;;1.93;100.00
32131;BME280;18639;50.716;7.086;2024-01-15T01:03:46;99136.22;;;1.95;100.00
32131;BME280;18639;50.716;7.086;2024-01-15T01:06:12;99135.75;;;1.87;100.00
32131;BME280;18639;50.716;7.086;2024-01-15T01:08:38;99134.75;;;1.91;100.00
32131;BME280;18639;50.716;7.086;2024-01-15T01:11:03;99113.22;;;1.80;100.00
32131;BME280;18639;50.716;7.086;2024-01-15T01:13:28;99128.06;;;1.89;100.00
32131;BME280;18639;50.716;7.086;2024-01-15T01:15:54;99130.38;;;1.93;100.00
32131;BME280;18639;50.716;7.086;2024-01-15T01:18:19;99112.13;;;1.85;100.00
32131;BME280;18639;50.716;7.086;2024-01-15T01:20:44;99130.97;;;1.98;100.00
32131;BME280;18639;50.716;7.086;2024-01-15T01:23:10;99129.41;;;1.96;100.00
32131;BME280;18639;50.716;7.086;2024-01-15T01:25:35;99126.88;;;1.96;100.00
32131;BME280;18639;50.716;7.086;2024-01-15T01:28:00;99125.28;;;1.93;100.00
32131;BME280;18639;50.716;7.086;2024-01-15T01:30:25;99116.03;;;1.92;100.00
32131;BME280;18639;50.716;7.086;2024-01-15T01:32:51;99117.03;;;1.88;100.00
32131;BME280;18639;50.716;7.086;2024-01-15T01:35:16;99117.56;;;1.95;100.00
32131;BME280;18639;50.716;7.086;2024-01-15T01:37:41;99127.53;;;1.99;100.00
32131;BME280;18639;50.716;7.086;2024-01-15T01:40:07;99143.63;;;2.00;100.00
32131;BME280;18639;50.716;7.086;2024-01-15T01:42:32;99132.78;;;1.96;100.00
32131;BME280;18639;50.716;7.086;2024-01-15T01:44:58;99107.59;;;1.73;100.00
32131;BME280;18639;50.716;7.086;2024-01-15T01:47:23;99121.09;;;1.75;100.00
32131;BME280;18639;50.716;7.086;2024-01-15T01:49:51;99112.16;;;1.66;100.00
32131;BME280;18639;50.716;7.086;2024-01-15T01:52:17;99128.34;;;1.83;100.00
32131;BME280;18639;50.716;7.086;2024-01-15T01:54:42;99109.25;;;1.74;100.00
32131;BME280;18639;50.716;7.086;2024-01-15T01:57:08;99136.59;;;1.88;100.00
32131;BME280;18639;50.716;7.086;2024-01-15T01:59:34;99133.84;;;1.92;100.00
32131;BME280;18639;50.716;7.086;2024-01-15T02:02:00;99105.88;;;1.74;100.00
32131;BME280;18639;50.716;7.086;2024-01-15T02:04:28;99108.06;;;1.81;100.00
32131;BME280;18639;50.716;7.086;2024-01-15T02:06:54;99124.38;;;1.94;100.00
32131;BME280;18639;50.716;7.086;2024-01-15T02:09:20;99136.59;;;2.05;100.00
32131;BME280;18639;50.716;7.086;2024-01-15T02:11:48;99130.97;;;1.98;100.00
32131;BME280;18639;50.716;7.086;2024-01-15T02:14:14;99139.53;;;1.97;100.00
32131;BME280;18639;50.716;7.086;2024-01-15T02:16:40;99117.56;;;1.95;100.00
32131;BME280;18639;50.716;7.086;2024-01-15T02:19:06;99118.47;;;1.94;100.00
32131;BME280;18639;50.716;7.086;2024-01-15T02:21:32;99131.13;;;1.95;100.00
32131;BME280;18639;50.716;7.086;2024-01-15T02:23:57;99136.22;;;2.13;100.00
32131;BME280;18639;50.716;7.086;2024-01-15T02:26:23;99137.19;;;2.10;100.00
32131;BME280;18639;50.716;7.086;2024-01-15T02:28:48;99140.44;;;2.14;100.00
32131;BME280;18639;50.716;7.086;2024-01-15T02:31:15;99137.34;;;2.07;100.00
32131;BME280;18639;50.716;7.086;2024-01-15T02:33:40;99135.03;;;2.02;100.00
32131;BME280;18639;50.716;7.086;2024-01-15T02:36:07;99129.41;;;1.96;100.00
32131;BME280;18639;50.716;7.086;2024-01-15T02:38:32;99146.72;;;2.06;100.00
32131;BME280;18639;50.716;7.086;2024-01-15T02:40:58;99132.63;;;1.99;100.00
32131;BME280;18639;50.716;7.086;2024-01-15T02:43:23;99138.59;;;1.98;100.00
32131;BME280;18639;50.716;7.086;2024-01-15T02:45:49;99122.66;;;1.95;100.00
32131;BME280;18639;50.716;7.086;2024-01-15T02:48:14;99133.50;;;1.98;100.00
32131;BME280;18639;50.716;7.086;2024-01-15T02:50:39;99135.16;;;1.99;100.00
32131;BME280;18639;50.716;7.086;2024-01-15T02:53:05;99130.84;;;2.01;100.00
32131;BME280;18639;50.716;7.086;2024-01-15T02:55:30;99126.63;;;2.00;100.00
32131;BME280;18639;50.716;7.086;2024-01-15T02:57:55;99125.16;;;1.96;100.00
32131;BME280;18639;50.716;7.086;2024-01-15T03:00:20;99117.03;;;1.88;100.00
32131;BME280;18639;50.716;7.086;2024-01-15T03:02:46;99119.81;;;2.01;100.00
32131;BME280;18639;50.716;7.086;2024-01-15T03:05:11;99141.75;;;2.03;100.00
32131;BME280;18639;50.716;7.086;2024-01-15T03:07:37;99133.91;;;2.08;100.00
32131;BME280;18639;50.716;7.086;2024-01-15T03:10:03;99122.44;;;1.99;100.00
32131;BME280;18639;50.716;7.086;2024-01-15T03:12:29;99109.09;;;1.94;100.00
32131;BME280;18639;50.716;7.086;2024-01-15T03:14:54;99126.63;;;2.00;100.00
32131;BME280;18639;50.716;7.086;2024-01-15T03:17:20;99129.94;;;2.02;100.00
32131;BME280;18639;50.716;7.086;2024-01-15T03:19:45;99131.56;;;2.03;100.00
32131;BME280;18639;50.716;7.086;2024-01-15T03:22:10;99149.34;;;2.05;100.00
32131;BME280;18639;50.716;7.086;2024-01-15T03:24:36;99141.63;;;2.06;100.00
32131;BME280;18639;50.716;7.086;2024-01-15T03:27:02;99144.47;;;2.18;100.00
32131;BME280;18639;50.716;7.086;2024-01-15T03:29:27;99137.41;;;2.05;100.00
32131;BME280;18639;50.716;7.086;2024-01-15T03:31:53;99139.81;;;2.08;100.00
32131;BME280;18639;50.716;7.086;2024-01-15T03:34:18;99142.50;;;2.05;100.00
32131;BME280;18639;50.716;7.086;2024-01-15T03:36:44;99133.81;;;2.09;100.00
32131;BME280;18639;50.716;7.086;2024-01-15T03:39:09;99138.00;;;2.10;100.00
32131;BME280;18639;50.716;7.086;2024-01-15T03:41:34;99124.84;;;2.02;100.00
32131;BME280;18639;50.716;7.086;2024-01-15T03:44:00;99098.91;;;1.94;100.00
32131;BME280;18639;50.716;7.086;2024-01-15T03:46:26;99132.31;;;2.05;100.00
32131;BME280;18639;50.716;7.086;2024-01-15T03:48:51;99089.31;;;1.82;100.00
32131;BME280;18639;50.716;7.086;2024-01-15T03:51:17;99137.66;;;2.01;100.00
32131;BME280;18639;50.716;7.086;2024-01-15T03:53:43;99115.19;;;1.92;100.00
32131;BME280;18639;50.716;7.086;2024-01-15T03:56:08;99130.91;;;2.00;100.00
32131;BME280;18639;50.716;7.086;2024-01-15T03:58:33;99124.84;;;2.02;100.00
32131;BME280;18639;50.716;7.086;2024-01-15T04:00:58;99134.72;;;2.08;100.00
32131;BME280;18639;50.716;7.086;2024-01-15T04:03:24;99113.91;;;2.00;100.00
32131;BME280;18639;50.716;7.086;2024-01-15T04:05:49;99118.81;;;2.03;100.00
32131;BME280;18639;50.716;7.086;2024-01-15T04:08:14;99107.16;;;1.99;100.00
32131;BME280;18639;50.716;7.086;2024-01-15T04:10:40;99123.63;;;2.09;100.00
32131;BME280;18639;50.716;7.086;2024-01-15T04:13:05;99093.81;;;1.94;100.00
32131;BME280;18639;50.716;7.086;2024-01-15T04:15:30;99107.69;;;2.06;100.00
32131;BME280;18639;50.716;7.086;2024-01-15T04:17:55;99118.47;;;2.11;100.00
32131;BME280;18639;50.716;7.086;2024-01-15T04:20:21;99114.50;;;2.05;100.00
32131;BME280;18639;50.716;7.086;2024-01-15T04:22:46;99112.72;;;2.07;100.00
32131;BME280;18639;50.716;7.086;2024-01-15T04:25:11;99104.66;;;1.98;100.00
32131;BME280;18639;50.716;7.086;2024-01-15T04:27:37;99097.66;;;2.03;100.00
32131;BME280;18639;50.716;7.086;2024-01-15T04:30:02;99093.53;;;2.00;100.00
32131;BME280;18639;50.716;7.086;2024-01-15T04:32:27;99094.13;;;2.05;100.00
32131;BME280;18639;50.716;7.086;2024-01-15T04:34:53;99060.94;;;1.90;100.00
32131;BME280;18639;50.716;7.086;2024-01-15T04:37:18;99095.47;;;2.13;100.00
32131;BME280;18639;50.716;7.086;2024-01-15T04:39:43;99072.38;;;1.98;100.00
32131;BME280;18639;50.716;7.086;2024-01-15T04:42:09;99089.25;;;2.01;100.00
32131;BME280;18639;50.716;7.086;2024-01-15T04:44:34;99082.44;;;2.01;100.00
32131;BME280;18639;50.716;7.086;2024-01-15T04:47:02;99090.44;;;2.11;100.00
32131;BME280;18639;50.716;7.086;2024-01-15T04:49:28;99057.88;;;1.83;100.00
32131;BME280;18639;50.716;7.086;2024-01-15T04:51:55;99066.81;;;1.92;100.00
32131;BME280;18639;50.716;7.086;2024-01-15T04:54:20;99073.84;;;1.87;100.00
32131;BME280;18639;50.716;7.086;2024-01-15T04:56:45;99061.31;;;1.82;100.00
32131;BME280;18639;50.716;7.086;2024-01-15T04:59:12;99091.88;;;1.99;100.00
32131;BME280;18639;50.716;7.086;2024-01-15T05:01:38;99082.91;;;1.92;100.00
32131;BME280;18639;50.716;7.086;2024-01-15T05:04:03;99090.31;;;1.97;100.00
32131;BME280;18639;50.716;7.086;2024-01-15T05:06:28;99087.47;;;2.03;100.00
32131;BME280;18639;50.716;7.086;2024-01-15T05:08:53;99049.50;;;1.81;100.00
32131;BME280;18639;50.716;7.086;2024-01-15T05:11:19;99073.91;;;2.02;100.00
32131;BME280;18639;50.716;7.086;2024-01-15T05:13:44;99051.81;;;2.03;100.00
32131;BME280;18639;50.716;7.086;2024-01-15T05:16:09;99056.66;;;2.07;100.00
32131;BME280;18639;50.716;7.086;2024-01-15T05:18:35;99074.59;;;2.22;100.00
32131;BME280;18639;50.716;7.086;2024-01-15T05:21:02;99060.53;;;2.15;100.00
32131;BME280;18639;50.716;7.086;2024-01-15T05:23:28;99078.03;;;2.21;100.00
32131;BME280;18639;50.716;7.086;2024-01-15T05:25:53;99071.47;;;2.17;100.00
32131;BME280;18639;50.716;7.086;2024-01-15T05:28:18;99056.78;;;2.04;100.00
32131;BME280;18639;50.716;7.086;2024-01-15T05:30:44;99074.00;;;2.17;100.00
32131;BME280;18639;50.716;7.086;2024-01-15T05:33:09;99054.41;;;2.01;100.00
32131;BME280;18639;50.716;7.086;2024-01-15T05:35:34;99051.69;;;2.04;100.00
32131;BME280;18639;50.716;7.086;2024-01-15T05:37:59;99051.56;;;2.07;100.00
32131;BME280;18639;50.716;7.086;2024-01-15T05:40:25;99076.72;;;2.14;100.00
32131;BME280;18639;50.716;7.086;2024-01-15T05:42:50;99082.56;;;2.16;100.00
32131;BME280;18639;50.716;7.086;2024-01-15T05:45:16;99074.97;;;2.14;100.00
32131;BME280;18639;50.716;7.086;2024-01-15T05:47:41;99066.25;;;2.02;100.00
32131;BME280;18639;50.716;7.086;2024-01-15T05:50:06;99069.31;;;2.09;100.00
32131;BME280;18639;50.716;7.086;2024-01-15T05:52:32;99078.66;;;2.08;100.00
32131;BME280;18639;50.716;7.086;2024-01-15T05:54:57;99072.25;;;2.01;100.00
32131;BME280;18639;50.716;7.086;2024-01-15T05:57:23;99058.22;;;1.93;100.00
32131;BME280;18639;50.716;7.086;2024-01-15T05:59:48;99050.22;;;1.83;100.00
32131;BME280;18639;50.716;7.086;2024-01-15T06:02:13;99058.41;;;1.90;100.00
32131;BME280;18639;50.716;7.086;2024-01-15T06:04:39;99067.47;;;1.95;100.00
32131;BME280;18639;50.716;7.086;2024-01-15T06:07:04;99069.94;;;1.97;100.00
32131;BME280;18639;50.716;7.086;2024-01-15T06:09:29;99037.81;;;1.77;100.00
32131;BME280;18639;50.716;7.086;2024-01-15T06:11:56;99039.69;;;1.91;100.00
32131;BME280;18639;50.716;7.086;2024-01-15T06:14:21;99052.84;;;1.99;100.00
32131;BME280;18639;50.716;7.086;2024-01-15T06:16:47;99052.59;;;2.03;100.00
32131;BME280;18639;50.716;7.086;2024-01-15T06:19:12;99056.66;;;2.07;100.00
32131;BME280;18639;50.716;7.086;2024-01-15T06:21:37;99065.19;;;2.06;100.00
32131;BME280;18639;50.716;7.086;2024-01-15T06:24:03;99061.59;;;2.10;100.00
32131;BME280;18639;50.716;7.086;2024-01-15T06:26:28;99059.78;;;2.13;100.00
32131;BME280;18639;50.716;7.086;2024-01-15T06:28:53;99040.56;;;2.07;100.00
32131;BME280;18639;50.716;7.086;2024-01-15T06:31:19;99066.69;;;2.10;100.00
32131;BME280;18639;50.716;7.086;2024-01-15T06:33:44;99054.00;;;2.09;100.00
32131;BME280;18639;50.716;7.086;2024-01-15T06:36:12;99049.69;;;2.11;100.00
32131;BME280;18639;50.716;7.086;2024-01-15T06:38:37;99053.19;;;2.08;100.00
32131;BME280;18639;50.716;7.086;2024-01-15T06:41:03;99049.75;;;2.09;100.00
32131;BME280;18639;50.716;7.086;2024-01-15T06:43:28;99054.59;;;2.14;100.00
32131;BME280;18639;50.716;7.086;2024-01-15T06:45:53;99035.53;;;2.05;100.00
32131;BME280;18639;50.716;7.086;2024-01-15T06:48:19;99043.94;;;2.07;100.00
32131;BME280;18639;50.716;7.086;2024-01-15T06:50:45;99008.28;;;1.90;100.00
32131;BME280;18639;50.716;7.086;2024-01-15T06:53:10;99055.19;;;2.19;100.00
32131;BME280;18639;50.716;7.086;2024-01-15T06:55:35;99043.50;;;2.15;100.00
32131;BME280;18639;50.716;7.086;2024-01-15T06:58:01;99048.78;;;2.12;100.00
32131;BME280;18639;50.716;7.086;2024-01-15T07:00:26;99032.97;;;2.05;100.00
32131;BME280;18639;50.716;7.086;2024-01-15T07:02:52;99039.66;;;2.08;100.00
32131;BME280;18639;50.716;7.086;2024-01-15T07:05:18;99026.53;;;1.98;100.00
32131;BME280;18639;50.716;7.086;2024-01-15T07:07:43;99039.56;;;2.09;100.00
32131;BME280;18639;50.716;7.086;2024-01-15T07:10:08;99033.28;;;1.99;100.00
32131;BME280;18639;50.716;7.086;2024-01-15T07:12:34;99027.22;;;2.02;100.00
32131;BME280;18639;50.716;7.086;2024-01-15T07:14:59;99034.88;;;2.02;100.00
32131;BME280;18639;50.716;7.086;2024-01-15T07:17:25;99034.63;;;2.06;100.00
32131;BME280;18639;50.716;7.086;2024-01-15T07:19:50;99039.88;;;2.03;100.00
32131;BME280;18639;50.716;7.086;2024-01-15T07:22:15;99036.13;;;2.10;100.00
32131;BME280;18639;50.716;7.086;2024-01-15T07:24:42;99044.56;;;2.11;100.00
32131;BME280;18639;50.716;7.086;2024-01-15T07:27:08;99042.41;;;2.03;100.00
32131;BME280;18639;50.716;7.086;2024-01-15T07:29:34;99026.41;;;2.01;100.00
32131;BME280;18639;50.716;7.086;2024-01-15T07:32:01;99038.72;;;2.09;100.00
32131;BME280;18639;50.716;7.086;2024-01-15T07:34:26;99018.69;;;2.03;100.00
32131;BME280;18639;50.716;7.086;2024-01-15T07:36:51;99014.56;;;2.00;100.00
32131;BME280;18639;50.716;7.086;2024-01-15T07:39:17;99029.94;;;2.15;100.00
32131;BME280;18639;50.716;7.086;2024-01-15T07:41:42;99005.84;;;2.04;100.00
32131;BME280;18639;50.716;7.086;2024-01-15T07:44:07;99030.22;;;2.26;100.00
32131;BME280;18639;50.716;7.086;2024-01-15T07:46:33;99015.25;;;2.20;100.00
32131;BME280;18639;50.716;7.086;2024-01-15T07:48:58;99021.50;;;2.30;100.00
32131;BME280;18639;50.716;7.086;2024-01-15T07:51:24;99012.50;;;2.24;100.00
32131;BME280;18639;50.716;7.086;2024-01-15T07:53:49;99023.00;;;2.34;100.00
32131;BME280;18639;50.716;7.086;2024-01-15T07:56:15;99029.59;;;2.38;100.00
32131;BME280;18639;50.716;7.086;2024-01-15T07:58:41;99021.38;;;2.33;100.00
32131;BME280;18639;50.716;7.086;2024-01-15T08:01:06;99011.25;;;2.31;100.00
32131;BME280;18639;50.716;7.086;2024-01-15T08:03:31;99032.13;;;2.38;100.00
32131;BME280;18639;50.716;7.086;2024-01-15T08:05:56;99025.91;;;2.43;100.00
32131;BME280;18639;50.716;7.086;2024-01-15T08:08:24;99018.16;;;2.29;100.00
32131;BME280;18639;50.716;7.086;2024-01-15T08:10:51;99028.00;;;2.35;100.00
32131;BME280;18639;50.716;7.086;2024-01-15T08:13:17;99027.13;;;2.36;100.00
32131;BME280;18639;50.716;7.086;2024-01-15T08:15:45;99034.19;;;2.47;100.00
32131;BME280;18639;50.716;7.086;2024-01-15T08:18:10;99024.66;;;2.35;100.00
32131;BME280;18639;50.716;7.086;2024-01-15T08:20:35;99032.06;;;2.39;100.00
32131;BME280;18639;50.716;7.086;2024-01-15T08:23:01;99031.06;;;2.42;100.00
32131;BME280;18639;50.716;7.086;2024-01-15T08:25:26;99026.78;;;2.42;100.00
32131;BME280;18639;50.716;7.086;2024-01-15T08:27:52;99033.88;;;2.53;100.00
32131;BME280;18639;50.716;7.086;2024-01-15T08:30:17;98968.09;;;2.13;100.00
32131;BME280;18639;50.716;7.086;2024-01-15T08:32:44;99031.06;;;2.58;100.00
32131;BME280;18639;50.716;7.086;2024-01-15T08:35:09;99035.53;;;2.54;100.00
32131;BME280;18639;50.716;7.086;2024-01-15T08:37:35;99042.34;;;2.69;100.00
32131;BME280;18639;50.716;7.086;2024-01-15T08:40:00;99040.63;;;2.70;100.00
32131;BME280;18639;50.716;7.086;2024-01-15T08:42:25;99038.72;;;2.73;100.00
32131;BME280;18639;50.716;7.086;2024-01-15T08:44:50;99036.03;;;2.76;100.00
32131;BME280;18639;50.716;7.086;2024-01-15T08:47:16;99037.91;;;2.73;100.00
32131;BME280;18639;50.716;7.086;2024-01-15T08:49:42;99028.63;;;2.72;100.00
32131;BME280;18639;50.716;7.086;2024-01-15T08:52:09;99050.19;;;2.82;100.00
32131;BME280;18639;50.716;7.086;2024-01-15T08:54:34;99038.72;;;2.73;100.00
32131;BME280;18639;50.716;7.086;2024-01-15T08:57:00;99040.38;;;2.74;100.00
32131;BME280;18639;50.716;7.086;2024-01-15T08:59:25;99038.16;;;2.68;100.00
32131;BME280;18639;50.716;7.086;2024-01-15T09:01:53;99035.72;;;2.67;100.00
32131;BME280;18639;50.716;7.086;2024-01-15T09:04:21;99040.38;;;2.74;100.00
32131;BME280;18639;50.716;7.086;2024-01-15T09:06:46;99017.09;;;2.49;100.00
32131;BME280;18639;50.716;7.086;2024-01-15T09:09:12;99025.16;;;2.57;100.00
32131;BME280;18639;50.716;7.086;2024-01-15T09:11:38;99035.84;;;2.64;100.00
32131;BME280;18639;50.716;7.086;2024-01-15T09:14:03;99053.13;;;2.74;100.00
32131;BME280;18639;50.716;7.086;2024-01-15T09:16:31;99041.78;;;2.64;100.00
32131;BME280;18639;50.716;7.086;2024-01-15T09:18:57;99044.25;;;2.81;100.00
32131;BME280;18639;50.716;7.086;2024-01-15T09:21:23;99054.78;;;2.75;100.00
32131;BME280;18639;50.716;7.086;2024-01-15T09:23:50;99017.34;;;2.60;100.00
32131;BME280;18639;50.716;7.086;2024-01-15T09:26:15;99038.00;;;2.71;100.00
32131;BME280;18639;50.716;7.086;2024-01-15T09:28:40;99048.34;;;2.84;100.00
32131;BME280;18639;50.716;7.086;2024-01-15T09:31:05;99038.31;;;2.81;100.00
32131;BME280;18639;50.716;7.086;2024-01-15T09:33:31;99036.44;;;2.84;100.00
32131;BME280;18639;50.716;7.086;2024-01-15T09:35:56;99006.91;;;2.65;100.00
32131;BME280;18639;50.716;7.086;2024-01-15T09:38:22;98989.00;;;2.50;100.00
32131;BME280;18639;50.716;7.086;2024-01-15T09:40:49;99043.94;;;2.87;100.00
32131;BME280;18639;50.716;7.086;2024-01-15T09:43:15;99032.00;;;2.72;100.00
32131;BME280;18639;50.716;7.086;2024-01-15T09:45:41;99031.56;;;2.80;100.00
32131;BME280;18639;50.716;7.086;2024-01-15T09:48:07;99051.16;;;2.79;100.00
32131;BME280;18639;50.716;7.086;2024-01-15T09:50:33;99028.28;;;2.62;100.00
32131;BME280;18639;50.716;7.086;2024-01-15T09:52:59;99059.72;;;2.78;100.00
32131;BME280;18639;50.716;7.086;2024-01-15T09:55:24;99044.09;;;2.69;100.00
32131;BME280;18639;50.716;7.086;2024-01-15T09:57:50;99040.13;;;2.47;100.00
32131;BME280;18639;50.716;7.086;2024-01-15T10:00:18;99042.75;;;2.46;100.00
32131;BME280;18639;50.716;7.086;2024-01-15T10:02:44;99026.59;;;2.30;100.00
32131;BME280;18639;50.716;7.086;2024-01-15T10:05:09;99019.50;;;2.19;100.00
32131;BME280;18639;50.716;7.086;2024-01-15T10:07:36;99047.91;;;2.29;100.00
32131;BME280;18639;50.716;7.086;2024-01-15T10:10:02;99055.69;;;2.26;100.00
32131;BME280;18639;50.716;7.086;2024-01-15T10:12:28;99050.03;;;2.21;100.00
32131;BME280;18639;50.716;7.086;2024-01-15T10:14:54;99056.94;;;2.19;100.00
32131;BME280;18639;50.716;7.086;2024-01-15T10:17:19;99058.91;;;2.14;100.00
32131;BME280;18639;50.716;7.086;2024-01-15T10:19:47;99063.72;;;2.02;100.00
32131;BME280;18639;50.716;7.086;2024-01-15T10:22:16;99052.00;;;1.98;100.00
32131;BME280;18639;50.716;7.086;2024-01-15T10:24:42;99053.66;;;1.99;100.00
32131;BME280;18639;50.716;7.086;2024-01-15T10:27:09;99051.03;;;2.01;100.00
32131;BME280;18639;50.716;7.086;2024-01-15T10:29:35;99043.94;;;2.07;100.00
32131;BME280;18639;50.716;7.086;2024-01-15T10:32:01;99069.88;;;2.14;100.00
32131;BME280;18639;50.716;7.086;2024-01-15T10:34:26;99068.69;;;2.21;100.00
32131;BME280;18639;50.716;7.086;2024-01-15T10:36:52;99057.91;;;2.16;100.00
32131;BME280;18639;50.716;7.086;2024-01-15T10:39:23;99065.53;;;2.16;100.00
32131;BME280;18639;50.716;7.086;2024-01-15T10:41:51;99030.97;;;1.95;100.00
32131;BME280;18639;50.716;7.086;2024-01-15T10:44:17;99072.81;;;2.24;100.00
32131;BME280;18639;50.716;7.086;2024-01-15T10:46:43;99056.69;;;2.23;100.00
32131;BME280;18639;50.716;7.086;2024-01-15T10:49:09;99059.91;;;2.27;100.00
32131;BME280;18639;50.716;7.086;2024-01-15T10:51:36;99055.28;;;2.18;100.00
32131;BME280;18639;50.716;7.086;2024-01-15T10:54:01;99064.19;;;2.09;100.00
32131;BME280;18639;50.716;7.086;2024-01-15T10:56:30;99054.84;;;2.09;100.00
32131;BME280;18639;50.716;7.086;2024-01-15T10:58:56;99061.28;;;2.17;100.00
32131;BME280;18639;50.716;7.086;2024-01-15T11:01:22;99047.78;;;2.15;100.00
32131;BME280;18639;50.716;7.086;2024-01-15T11:03:48;99063.06;;;2.15;100.00
32131;BME280;18639;50.716;7.086;2024-01-15T11:06:17;99006.94;;;1.83;100.00
32131;BME280;18639;50.716;7.086;2024-01-15T11:08:49;99076.31;;;2.21;100.00
32131;BME280;18639;50.716;7.086;2024-01-15T11:11:16;99061.00;;;2.05;100.00
32131;BME280;18639;50.716;7.086;2024-01-15T11:13:42;98999.66;;;1.60;100.00
32131;BME280;18639;50.716;7.086;2024-01-15T11:16:13;99056.16;;;1.84;100.00
32131;BME280;18639;50.716;7.086;2024-01-15T11:18:41;99062.38;;;1.95;100.00
32131;BME280;18639;50.716;7.086;2024-01-15T11:23:49;99068.88;;;2.01;100.00
32131;BME280;18639;50.716;7.086;2024-01-15T11:26:43;99072.00;;;2.06;100.00
32131;BME280;18639;50.716;7.086;2024-01-15T11:29:30;99077.03;;;2.07;100.00
32131;BME280;18639;50.716;7.086;2024-01-15T11:32:01;99073.72;;;2.05;100.00
32131;BME280;18639;50.716;7.086;2024-01-15T11:34:56;99066.31;;;2.01;100.00
32131;BME280;18639;50.716;7.086;2024-01-15T11:37:23;99065.19;;;2.06;100.00
32131;BME280;18639;50.716;7.086;2024-01-15T11:39:54;99055.47;;;1.97;100.00
32131;BME280;18639;50.716;7.086;2024-01-15T11:42:23;99067.97;;;2.02;100.00
32131;BME280;18639;50.716;7.086;2024-01-15T11:44:49;99066.47;;;1.98;100.00
32131;BME280;18639;50.716;7.086;2024-01-15T11:47:14;99046.19;;;1.79;100.00
32131;BME280;18639;50.716;7.086;2024-01-15T11:52:25;99074.94;;;1.98;100.00
32131;BME280;18639;50.716;7.086;2024-01-15T11:55:07;99078.31;;;1.99;100.00
32131;BME280;18639;50.716;7.086;2024-01-15T11:57:45;99079.81;;;2.03;100.00
32131;BME280;18639;50.716;7.086;2024-01-15T12:00:11;99077.69;;;2.11;100.00
32131;BME280;18639;50.716;7.086;2024-01-15T12:02:44;99080.66;;;2.19;100.00
32131;BME280;18639;50.716;7.086;2024-01-15T12:05:11;99079.78;;;2.20;100.00
32131;BME280;18639;50.716;7.086;2024-01-15T12:07:40;99060.53;;;2.15;100.00
32131;BME280;18639;50.716;7.086;2024-01-15T12:10:13;99077.94;;;2.39;100.00
32131;BME280;18639;50.716;7.086;2024-01-15T12:15:20;99072.72;;;2.25;100.00
32131;BME280;18639;50.716;7.086;2024-01-15T12:17:46;99073.31;;;2.30;100.00
32131;BME280;18639;50.716;7.086;2024-01-15T12:20:14;99078.09;;;2.36;100.00
32131;BME280;18639;50.716;7.086;2024-01-15T12:22:40;99068.19;;;2.30;100.00
32131;BME280;18639;50.716;7.086;2024-01-15T12:25:06;99078.31;;;2.32;100.00
32131;BME280;18639;50.716;7.086;2024-01-15T12:27:31;99074.81;;;2.34;100.00
32131;BME280;18639;50.716;7.086;2024-01-15T12:29:58;99075.03;;;2.30;100.00
32131;BME280;18639;50.716;7.086;2024-01-15T12:32:24;99056.84;;;2.20;100.00
32131;BME280;18639;50.716;7.086;2024-01-15T12:34:50;99070.69;;;2.32;100.00
32131;BME280;18639;50.716;7.086;2024-01-15T12:37:18;99040.34;;;2.27;100.00
32131;BME280;18639;50.716;7.086;2024-01-15T12:39:43;99055.66;;;2.43;100.00
32131;BME280;18639;50.716;7.086;2024-01-15T12:42:09;99050.56;;;2.43;100.00
32131;BME280;18639;50.716;7.086;2024-01-15T12:44:35;99046.94;;;2.47;100.00
32131;BME280;18639;50.716;7.086;2024-01-15T12:47:03;99061.19;;;2.51;100.00
32131;BME280;18639;50.716;7.086;2024-01-15T12:49:29;99058.03;;;2.46;100.00
32131;BME280;18639;50.716;7.086;2024-01-15T12:51:56;99070.47;;;2.68;100.00
32131;BME280;18639;50.716;7.086;2024-01-15T12:54:22;99081.75;;;2.79;100.00
32131;BME280;18639;50.716;7.086;2024-01-15T12:56:48;99084.75;;;2.87;100.00
32131;BME280;18639;50.716;7.086;2024-01-15T12:59:14;99074.28;;;2.76;100.00
32131;BME280;18639;50.716;7.086;2024-01-15T13:01:39;99069.66;;;2.67;100.00
32131;BME280;18639;50.716;7.086;2024-01-15T13:04:05;99094.44;;;2.96;100.00
32131;BME280;18639;50.716;7.086;2024-01-15T13:06:33;99090.16;;;2.81;100.00